createdAt,value
2022-08-22T00:02:29.568Z,72.36
2022-08-22T00:03:16.107Z,72.86
2022-08-22T00:05:29.591Z,72.57
2022-08-22T00:08:23.405Z,73.45
2022-08-22T00:10:54.651Z,73.19
2022-08-22T00:13:40.598Z,72.83
2022-08-22T00:16:48.377Z,73.43
2022-08-22T00:19:48.347Z,73.64
2022-08-22T00:22:30.399Z,73.53
2022-08-22T00:25:29.886Z,73.70
2022-08-22T00:28:19.502Z,74.08
2022-08-22T00:30:51.868Z,74.15
2022-08-22T00:33:39.921Z,73.82
2022-08-22T00:36:19.937Z,73.88
2022-08-22T00:39:17.459Z,74.74
2022-08-22T00:42:41.505Z,73.88
2022-08-22T00:45:34.145Z,74.05
2022-08-22T00:48:27.504Z,74.27
2022-08-22T00:51:35.019Z,74.51
2022-08-22T00:54:34.385Z,74.54
2022-08-22T00:57:39.794Z,74.60
2022-08-22T01:00:19.032Z,76.00
2022-08-22T01:03:26.679Z,75.40
2022-08-22T01:06:24.651Z,75.02
2022-08-22T01:09:27.431Z,74.72
2022-08-22T01:12:13.864Z,77.68
2022-08-22T01:15:03.486Z,77.03
2022-08-22T01:18:29.772Z,76.69
2022-08-22T01:21:20.651Z,76.76
2022-08-22T01:24:32.671Z,77.27
2022-08-22T01:27:52.335Z,77.15
2022-08-22T01:30:52.406Z,76.96
2022-08-22T01:34:16.180Z,77.60
2022-08-22T01:37:25.052Z,76.81
2022-08-22T01:40:01.619Z,77.01
2022-08-22T01:42:38.921Z,76.72
2022-08-22T01:45:12.278Z,77.42
2022-08-22T01:47:57.178Z,77.29
2022-08-22T01:50:50.437Z,77.69
2022-08-22T01:53:25.081Z,77.74
2022-08-22T01:56:00.891Z,77.29
2022-08-22T01:58:32.070Z,77.97
2022-08-22T02:01:20.604Z,78.40
2022-08-22T02:04:15.253Z,78.05
2022-08-22T02:07:14.475Z,77.74
2022-08-22T02:10:22.543Z,77.78
2022-08-22T02:13:04.095Z,77.45
2022-08-22T02:15:40.685Z,77.36
2022-08-22T02:18:11.807Z,77.43
2022-08-22T02:20:48.510Z,77.81
2022-08-22T02:23:33.245Z,78.16
2022-08-22T02:26:05.453Z,78.36
2022-08-22T02:28:58.578Z,78.96
2022-08-22T02:31:46.479Z,78.83
2022-08-22T02:34:36.877Z,79.44
2022-08-22T02:37:21.392Z,80.69
2022-08-22T02:40:33.206Z,81.62
2022-08-22T02:43:43.283Z,81.97
2022-08-22T02:46:46.656Z,80.50
2022-08-22T02:49:36.311Z,80.16
2022-08-22T02:52:31.943Z,80.47
2022-08-22T02:56:10.634Z,81.67
2022-08-22T02:59:13.543Z,82.08
2022-08-22T03:01:46.527Z,83.24
2022-08-22T03:04:31.899Z,83.62
2022-08-22T03:07:12.680Z,83.01
2022-08-22T03:09:49.158Z,82.46
2022-08-22T03:12:40.143Z,81.91
2022-08-22T03:15:30.590Z,81.21
2022-08-22T03:18:48.763Z,80.95
2022-08-22T03:21:35.182Z,81.48
2022-08-22T03:24:24.491Z,81.99
2022-08-22T03:27:32.808Z,82.10
2022-08-22T03:30:10.253Z,81.61
2022-08-22T03:32:55.478Z,81.44
2022-08-22T03:35:46.049Z,80.55
2022-08-22T03:38:32.922Z,80.02
2022-08-22T03:41:45.468Z,80.04
2022-08-22T03:44:26.671Z,80.26
2022-08-22T03:47:31.711Z,80.42
2022-08-22T03:50:19.010Z,80.70
2022-08-22T03:53:15.466Z,80.87
2022-08-22T03:56:10.278Z,80.68
2022-08-22T03:59:09.810Z,81.38
2022-08-22T04:02:01.036Z,81.02
2022-08-22T04:04:48.505Z,80.77
2022-08-22T04:07:46.883Z,81.60
2022-08-22T04:10:33.105Z,81.70
2022-08-22T04:13:28.568Z,81.28
2022-08-22T04:17:11.872Z,81.09
2022-08-22T04:20:13.028Z,80.09
2022-08-22T04:23:01.857Z,80.05
2022-08-22T04:25:42.605Z,80.03
2022-08-22T04:28:30.178Z,80.17
2022-08-22T04:31:12.436Z,80.16
2022-08-22T04:33:54.111Z,80.16
2022-08-22T04:36:45.510Z,80.20
2022-08-22T04:39:34.465Z,79.91
2022-08-22T04:42:31.626Z,79.56
2022-08-22T04:45:12.940Z,79.33
2022-08-22T04:48:03.221Z,78.98
2022-08-22T04:50:45.275Z,78.88
2022-08-22T04:53:26.942Z,78.85
2022-08-22T04:56:55.249Z,78.52
2022-08-22T04:59:24.553Z,78.78
2022-08-22T05:02:06.003Z,79.05
2022-08-22T05:05:04.209Z,79.15
2022-08-22T05:07:39.434Z,79.10
2022-08-22T05:10:19.951Z,78.95
2022-08-22T05:12:55.282Z,78.85
2022-08-22T05:15:31.611Z,78.84
2022-08-22T05:18:09.027Z,78.72
2022-08-22T05:20:38.611Z,78.69
2022-08-22T05:23:29.921Z,78.33
2022-08-22T05:26:01.587Z,78.46
2022-08-22T05:28:31.856Z,77.94
2022-08-22T05:31:01.773Z,78.25
2022-08-22T05:33:52.428Z,78.30
2022-08-22T05:36:36.532Z,77.90
2022-08-22T05:39:19.538Z,77.72
2022-08-22T05:41:48.072Z,77.27
2022-08-22T05:44:34.941Z,77.13
2022-08-22T05:47:36.567Z,76.76
2022-08-22T05:50:13.896Z,76.42
2022-08-22T05:53:20.404Z,75.86
2022-08-22T05:56:04.848Z,75.73
2022-08-22T05:59:01.595Z,75.44
2022-08-22T06:01:33.972Z,75.09
2022-08-22T06:04:47.183Z,74.79
2022-08-22T06:07:20.208Z,73.96
2022-08-22T06:09:47.742Z,73.97
2022-08-22T06:12:36.200Z,73.74
2022-08-22T06:15:30.390Z,73.20
2022-08-22T06:18:05.136Z,72.94
2022-08-22T06:21:08.160Z,72.79
2022-08-22T06:23:50.735Z,72.15
2022-08-22T06:26:20.603Z,72.48
2022-08-22T06:28:54.709Z,71.82
2022-08-22T06:31:32.511Z,71.68
2022-08-22T06:34:13.503Z,71.16
2022-08-22T06:36:47.970Z,71.06
2022-08-22T06:39:37.396Z,70.29
2022-08-22T06:42:30.057Z,69.95
2022-08-22T06:45:10.242Z,70.35
2022-08-22T06:48:14.736Z,70.11
2022-08-22T06:50:49.461Z,70.22
2022-08-22T06:53:19.525Z,70.05
2022-08-22T06:56:02.181Z,70.24
2022-08-22T06:58:44.719Z,69.94
2022-08-22T07:01:22.917Z,69.98
2022-08-22T07:03:54.470Z,69.74
2022-08-22T07:06:49.840Z,69.46
2022-08-22T07:09:28.791Z,68.71
2022-08-22T07:11:59.955Z,68.37
2022-08-22T07:14:49.073Z,68.66
2022-08-22T07:17:25.458Z,68.08
2022-08-22T07:20:04.403Z,67.78
2022-08-22T07:22:37.033Z,66.86
2022-08-22T07:25:14.961Z,67.62
2022-08-22T07:28:03.730Z,67.15
2022-08-22T07:31:02.979Z,66.28
2022-08-22T07:33:46.998Z,66.17
2022-08-22T07:36:31.042Z,66.04
2022-08-22T07:39:29.549Z,65.56
2022-08-22T07:42:22.224Z,65.69
2022-08-22T07:45:03.983Z,64.73
2022-08-22T07:47:50.409Z,64.71
2022-08-22T07:50:24.732Z,63.66
2022-08-22T07:52:53.366Z,64.40
2022-08-22T07:55:24.895Z,63.24
2022-08-22T07:58:01.615Z,61.77
2022-08-22T08:00:32.239Z,62.85
2022-08-22T08:03:06.654Z,61.90
2022-08-22T08:05:37.245Z,61.40
2022-08-22T08:08:33.080Z,60.67
2022-08-22T08:11:01.153Z,59.91
2022-08-22T08:13:46.511Z,59.66
2022-08-22T08:16:33.950Z,59.63
2022-08-22T08:19:01.955Z,59.74
2022-08-22T08:21:49.379Z,58.46
2022-08-22T08:24:45.132Z,57.01
2022-08-22T08:27:36.996Z,57.15
2022-08-22T08:30:18.887Z,57.87
2022-08-22T08:32:57.440Z,55.99
2022-08-22T08:36:03.240Z,55.31
2022-08-22T08:38:47.655Z,56.67
2022-08-22T08:41:28.352Z,56.35
2022-08-22T08:44:18.708Z,57.09
2022-08-22T08:47:20.575Z,55.67
2022-08-22T08:50:09.976Z,53.39
2022-08-22T08:52:52.550Z,53.64
2022-08-22T08:55:54.548Z,53.78
2022-08-22T08:59:19.948Z,55.09
2022-08-22T09:02:42.282Z,55.54
2022-08-22T09:05:55.696Z,55.31
2022-08-22T09:09:01.882Z,54.67
2022-08-22T09:11:53.929Z,53.69
2022-08-22T09:14:54.305Z,54.13
2022-08-22T09:18:13.473Z,53.63
2022-08-22T09:21:30.406Z,52.99
2022-08-22T09:24:32.627Z,52.90
2022-08-22T09:27:08.589Z,53.56
2022-08-22T09:29:54.616Z,53.54
2022-08-22T09:32:55.769Z,53.33
2022-08-22T09:36:00.946Z,53.37
2022-08-22T09:38:48.010Z,53.37
2022-08-22T09:41:51.751Z,51.95
2022-08-22T09:44:30.233Z,51.20
2022-08-22T09:47:13.948Z,51.36
2022-08-22T09:49:55.958Z,51.24
2022-08-22T09:53:05.342Z,50.75
2022-08-22T09:55:40.871Z,50.74
2022-08-22T09:58:47.470Z,50.75
2022-08-22T10:02:00.249Z,51.07
2022-08-22T10:05:00.248Z,51.50
2022-08-22T10:07:37.322Z,51.52
2022-08-22T10:10:34.806Z,50.83
2022-08-22T10:13:11.388Z,48.65
2022-08-22T10:15:45.490Z,49.11
2022-08-22T10:18:34.427Z,48.85
2022-08-22T10:21:14.644Z,48.42
2022-08-22T10:24:00.697Z,48.92
2022-08-22T10:26:38.970Z,48.53
2022-08-22T10:29:51.726Z,49.52
2022-08-22T10:32:57.946Z,50.10
2022-08-22T10:35:38.841Z,49.98
2022-08-22T10:38:44.209Z,49.94
2022-08-22T10:41:52.523Z,50.83
2022-08-22T10:44:41.759Z,50.82
2022-08-22T10:47:29.214Z,48.13
2022-08-22T10:50:31.109Z,46.26
2022-08-22T10:53:29.826Z,47.08
2022-08-22T10:56:21.761Z,46.35
2022-08-22T10:58:59.505Z,45.77
2022-08-22T11:01:37.980Z,44.49
2022-08-22T11:04:28.500Z,45.19
2022-08-22T11:07:44.575Z,46.20
2022-08-22T11:10:32.729Z,45.83
2022-08-22T11:13:21.568Z,46.16
2022-08-22T11:16:19.210Z,45.31
2022-08-22T11:19:30.717Z,45.33
2022-08-22T11:22:23.814Z,44.85
2022-08-22T11:25:05.288Z,45.04
2022-08-22T11:28:01.078Z,44.44
2022-08-22T11:30:54.830Z,44.71
2022-08-22T11:33:47.229Z,43.90
2022-08-22T11:36:41.515Z,42.96
2022-08-22T11:40:05.674Z,43.82
2022-08-22T11:43:03.172Z,43.57
2022-08-22T11:45:40.477Z,42.91
2022-08-22T11:48:38.501Z,44.18
2022-08-22T11:51:25.342Z,44.47
2022-08-22T11:54:10.586Z,44.58
2022-08-22T11:56:52.302Z,44.35
2022-08-22T12:00:21.075Z,43.82
2022-08-22T12:03:32.849Z,44.03
2022-08-22T12:06:10.696Z,42.53
2022-08-22T12:08:43.099Z,42.52
2022-08-22T12:11:31.945Z,42.45
2022-08-22T12:14:06.642Z,42.65
2022-08-22T12:17:08.899Z,43.70
2022-08-22T12:20:17.337Z,43.99
2022-08-22T12:23:16.660Z,43.66
2022-08-22T12:26:16.441Z,42.95
2022-08-22T12:29:40.112Z,42.83
2022-08-22T12:32:34.139Z,43.36
2022-08-22T12:35:14.509Z,43.37
2022-08-22T12:38:28.204Z,43.68
2022-08-22T12:41:28.124Z,44.30
2022-08-22T12:44:50.607Z,43.93
2022-08-22T12:48:11.680Z,44.15
2022-08-22T12:50:55.694Z,43.84
2022-08-22T12:53:32.179Z,43.79
2022-08-22T12:56:11.773Z,43.38
2022-08-22T12:59:32.979Z,42.25
2022-08-22T13:02:13.390Z,42.44
2022-08-22T13:05:07.717Z,42.40
2022-08-22T13:07:36.923Z,41.96
2022-08-22T13:10:37.397Z,41.71
2022-08-22T13:13:12.373Z,41.47
2022-08-22T13:15:57.708Z,41.96
2022-08-22T13:18:35.835Z,42.59
2022-08-22T13:21:06.551Z,42.48
2022-08-22T13:23:41.922Z,42.06
2022-08-22T13:26:33.191Z,42.75
2022-08-22T13:29:25.842Z,42.15
2022-08-22T13:31:59.926Z,42.30
2022-08-22T13:34:45.339Z,42.01
2022-08-22T13:37:24.376Z,41.74
2022-08-22T13:39:56.126Z,41.31
2022-08-22T13:42:30.161Z,40.76
2022-08-22T13:45:05.578Z,41.10
2022-08-22T13:47:39.706Z,41.39
2022-08-22T13:50:21.119Z,42.38
2022-08-22T13:53:05.569Z,42.52
2022-08-22T13:55:55.416Z,41.78
2022-08-22T13:58:40.553Z,42.08
2022-08-22T14:02:06.210Z,41.90
2022-08-22T14:04:39.085Z,42.47
2022-08-22T14:07:08.340Z,41.86
2022-08-22T14:10:05.109Z,41.43
2022-08-22T14:13:11.300Z,42.33
2022-08-22T14:15:45.426Z,41.36
2022-08-22T14:18:30.494Z,41.61
2022-08-22T14:21:28.605Z,41.89
2022-08-22T14:24:45.307Z,42.24
2022-08-22T14:27:26.748Z,41.55
2022-08-22T14:30:05.067Z,42.56
2022-08-22T14:32:50.694Z,42.74
2022-08-22T14:35:35.060Z,43.03
2022-08-22T14:38:35.847Z,42.72
2022-08-22T14:41:21.524Z,42.38
2022-08-22T14:44:08.989Z,42.15
2022-08-22T14:46:41.858Z,41.98
2022-08-22T14:49:18.817Z,41.96
2022-08-22T14:51:59.817Z,41.81
2022-08-22T14:54:31.214Z,42.01
2022-08-22T14:57:01.879Z,42.23
2022-08-22T14:59:50.047Z,42.14
2022-08-22T15:02:29.813Z,42.76
2022-08-22T15:05:11.257Z,42.68
2022-08-22T15:07:38.926Z,42.63
2022-08-22T15:10:33.298Z,42.71
2022-08-22T15:13:09.333Z,43.14
2022-08-22T15:15:52.804Z,43.22
2022-08-22T15:18:27.702Z,43.21
2022-08-22T15:21:10.164Z,43.51
2022-08-22T15:23:45.353Z,43.55
2022-08-22T15:26:39.808Z,43.63
2022-08-22T15:29:26.551Z,43.79
2022-08-22T15:32:00.381Z,44.08
2022-08-22T15:34:39.161Z,43.84
2022-08-22T15:37:18.667Z,43.79
2022-08-22T15:40:12.650Z,43.88
2022-08-22T15:42:50.093Z,43.75
2022-08-22T15:45:34.743Z,43.83
2022-08-22T15:48:09.350Z,43.61
2022-08-22T15:50:58.382Z,43.91
2022-08-22T15:54:24.440Z,44.13
2022-08-22T15:56:52.961Z,44.34
2022-08-22T15:59:48.358Z,44.71
2022-08-22T16:03:03.482Z,48.24
2022-08-22T16:05:56.631Z,50.70
2022-08-22T16:08:47.108Z,52.47
2022-08-22T16:11:33.434Z,54.27
2022-08-22T16:14:23.851Z,55.74
2022-08-22T16:16:57.184Z,55.35
2022-08-22T16:19:27.539Z,56.13
2022-08-22T16:21:57.972Z,57.83
2022-08-22T16:24:25.299Z,57.99
2022-08-22T16:26:53.323Z,58.47
2022-08-22T16:29:20.777Z,58.56
2022-08-22T16:31:48.031Z,58.26
2022-08-22T16:34:17.446Z,58.26
2022-08-22T16:37:03.206Z,59.52
2022-08-22T16:40:14.703Z,59.08
2022-08-22T16:42:51.340Z,60.34
2022-08-22T16:45:30.720Z,60.44
2022-08-22T16:47:59.007Z,60.68
2022-08-22T16:50:35.276Z,61.59
2022-08-22T16:53:48.633Z,61.56
2022-08-22T16:56:39.534Z,61.08
2022-08-22T16:59:40.596Z,61.65
2022-08-22T17:02:32.920Z,61.94
2022-08-22T17:05:42.500Z,62.52
2022-08-22T17:08:34.011Z,62.78
2022-08-22T17:11:19.872Z,62.78
2022-08-22T17:14:09.004Z,62.89
2022-08-22T17:16:54.194Z,62.65
2022-08-22T17:19:40.102Z,63.06
2022-08-22T17:22:37.196Z,63.40
2022-08-22T17:25:22.889Z,63.27
2022-08-22T17:28:19.437Z,63.53
2022-08-22T17:30:56.162Z,64.63
2022-08-22T17:33:51.886Z,64.45
2022-08-22T17:36:44.375Z,63.98
2022-08-22T17:39:41.727Z,63.35
2022-08-22T17:42:45.888Z,63.54
2022-08-22T17:45:32.634Z,64.07
2022-08-22T17:48:40.438Z,63.94
2022-08-22T17:51:34.427Z,64.56
2022-08-22T17:54:32.641Z,64.08
2022-08-22T17:57:21.613Z,65.01
2022-08-22T17:59:57.461Z,65.77
2022-08-22T18:02:39.459Z,64.50
2022-08-22T18:05:27.216Z,65.40
2022-08-22T18:11:44.944Z,65.71
2022-08-22T18:14:39.188Z,66.43
2022-08-22T18:17:49.242Z,66.62
2022-08-22T18:21:02.702Z,65.58
2022-08-22T18:23:48.946Z,65.88
2022-08-22T18:26:34.887Z,65.95
2022-08-22T18:29:11.726Z,66.24
2022-08-22T18:32:21.475Z,66.27
2022-08-22T18:35:21.353Z,66.06
2022-08-22T18:38:24.287Z,66.36
2022-08-22T18:41:08.943Z,66.22
2022-08-22T18:43:47.838Z,66.56
2022-08-22T18:46:46.286Z,66.55
2022-08-22T18:49:24.089Z,68.75
2022-08-22T18:52:08.768Z,72.41
2022-08-22T18:55:11.648Z,74.56
2022-08-22T18:58:02.430Z,76.75
2022-08-22T19:00:52.027Z,75.94
2022-08-22T19:03:40.453Z,75.73
2022-08-22T19:06:45.233Z,75.90
2022-08-22T19:09:48.473Z,76.77
2022-08-22T19:12:38.759Z,77.61
2022-08-22T19:15:55.106Z,78.60
2022-08-22T19:18:48.481Z,78.38
2022-08-22T19:21:52.437Z,79.67
2022-08-22T19:24:19.707Z,79.25
2022-08-22T19:26:53.086Z,78.85
2022-08-22T19:29:23.868Z,80.82
2022-08-22T19:32:05.773Z,80.68
2022-08-22T19:34:46.947Z,80.17
2022-08-22T19:37:32.795Z,80.81
2022-08-22T19:40:38.221Z,81.70
2022-08-22T19:43:30.181Z,81.86
2022-08-22T19:46:03.195Z,82.95
2022-08-22T19:48:47.590Z,82.04
2022-08-22T19:51:28.404Z,81.07
2022-08-22T19:54:19.905Z,80.74
2022-08-22T19:57:14.019Z,80.06
2022-08-22T19:59:50.834Z,83.86
2022-08-22T20:03:05.709Z,85.97
2022-08-22T20:06:22.146Z,85.14
2022-08-22T20:09:32.073Z,84.89
2022-08-22T20:12:25.865Z,85.48
2022-08-22T20:14:53.411Z,86.37
2022-08-22T20:17:26.758Z,87.70
2022-08-22T20:20:33.955Z,89.05
2022-08-22T20:23:03.087Z,89.13
2022-08-22T20:25:51.432Z,88.89
2022-08-22T20:28:46.428Z,88.65
2022-08-22T20:31:25.291Z,89.88
2022-08-22T20:34:00.643Z,90.06
2022-08-22T20:36:29.476Z,90.09
2022-08-22T20:39:08.965Z,89.93
2022-08-22T20:42:13.441Z,90.05
2022-08-22T20:44:44.403Z,90.01
2022-08-22T20:47:26.038Z,90.36
2022-08-22T20:50:03.796Z,91.51
2022-08-22T20:52:43.969Z,91.68
2022-08-22T20:55:31.614Z,92.44
2022-08-22T20:58:04.862Z,91.87
2022-08-22T21:00:42.160Z,91.79
2022-08-22T21:03:31.739Z,91.89
2022-08-22T21:06:16.444Z,91.70
2022-08-22T21:08:46.795Z,91.95
2022-08-22T21:11:40.477Z,92.65
2022-08-22T21:14:20.457Z,95.14
2022-08-22T21:16:48.500Z,95.15
2022-08-22T21:19:29.755Z,95.48
2022-08-22T21:22:32.233Z,95.42
2022-08-22T21:25:00.829Z,96.13
2022-08-22T21:27:32.292Z,97.07
2022-08-22T21:30:05.304Z,97.97
2022-08-22T21:32:41.646Z,97.29
2022-08-22T21:35:28.157Z,97.40
2022-08-22T21:37:56.122Z,95.67
2022-08-22T21:40:35.213Z,95.46
2022-08-22T21:43:10.391Z,95.12
2022-08-22T21:45:38.950Z,93.86
2022-08-22T21:48:54.729Z,93.76
2022-08-22T21:51:41.386Z,93.96
2022-08-22T21:54:31.432Z,93.83
2022-08-22T21:57:15.588Z,94.84
2022-08-22T21:59:51.763Z,94.92
2022-08-22T22:02:40.565Z,94.79
2022-08-22T22:05:11.508Z,94.60
2022-08-22T22:07:42.751Z,94.94
2022-08-22T22:10:14.624Z,95.73
2022-08-22T22:12:44.431Z,96.29
2022-08-22T22:15:17.120Z,97.00
2022-08-22T22:17:45.022Z,96.64
2022-08-22T22:20:15.332Z,96.10
2022-08-22T22:22:46.487Z,95.58
2022-08-22T22:25:40.188Z,95.66
2022-08-22T22:28:15.277Z,96.48
2022-08-22T22:30:44.744Z,96.42
2022-08-22T22:33:12.529Z,95.98
2022-08-22T22:35:40.601Z,95.87
2022-08-22T22:38:08.568Z,95.99
2022-08-22T22:40:36.182Z,95.96
2022-08-22T22:43:03.784Z,96.15
2022-08-22T22:45:31.214Z,96.27
2022-08-22T22:47:58.970Z,96.47
2022-08-22T22:50:26.556Z,96.64
2022-08-22T22:52:54.250Z,97.03
2022-08-22T22:55:24.412Z,96.97
2022-08-22T22:57:59.162Z,96.54
2022-08-22T23:00:31.729Z,96.56
2022-08-22T23:03:05.817Z,96.60
2022-08-22T23:05:34.146Z,96.64
2022-08-22T23:08:02.640Z,96.73
2022-08-22T23:10:31.291Z,96.73
2022-08-22T23:12:59.402Z,96.67
2022-08-22T23:15:27.932Z,96.75
2022-08-22T23:17:55.616Z,96.85
2022-08-22T23:20:24.143Z,96.77
2022-08-22T23:22:51.613Z,96.96
2022-08-22T23:25:19.173Z,97.00
2022-08-22T23:27:52.126Z,96.91
2022-08-22T23:30:21.330Z,97.12
2022-08-22T23:32:48.734Z,97.63
2022-08-22T23:35:16.493Z,98.44
2022-08-22T23:37:43.957Z,98.72
2022-08-22T23:40:12.446Z,98.41
2022-08-22T23:42:40.013Z,98.20
2022-08-22T23:45:07.635Z,98.40
2022-08-22T23:47:34.929Z,98.40
2022-08-22T23:50:04.323Z,98.34
2022-08-22T23:52:34.003Z,98.14
2022-08-22T23:55:01.456Z,97.55
2022-08-22T23:57:29.431Z,97.12
2022-08-22T23:59:58.457Z,97.24
